Time;durP1;ratioP1;P1;durP2;ratioP2;P2;SDS_P1;SDS_P2;PMS_P1;PMS_P2;Temp;Humidity;BMP_temperature;BMP_pressure;BME280_temperature;BME280_humidity;BME280_pressure;Samples;Min_cycle;Max_cycle;Signal;HPM_P1;HPM_P2
2023/04/07 00:02:00;;;;;;;7.68;4.95;;;;;;;17.71;46.13;101573.09;5043316;28;20061;-25
2023/04/07 00:04:27;;;;;;;7.50;5.15;;;;;;;17.72;46.60;101577.44;5044321;28;20049;-25
2023/04/07 00:06:54;;;;;;;8.70;5.03;;;;;;;17.71;46.27;101578.44;5047268;28;20053;-25
2023/04/07 00:09:20;;;;;;;6.75;4.63;;;;;;;17.70;45.86;101574.91;5043606;28;20156;-26
2023/04/07 00:11:47;;;;;;;6.60;4.28;;;;;;;17.69;45.69;101578.59;5042772;28;20053;-25
2023/04/07 00:14:14;;;;;;;7.80;4.65;;;;;;;17.69;46.27;101581.28;5044781;28;20052;-25
2023/04/07 00:16:40;;;;;;;7.40;4.70;;;;;;;17.68;46.07;101579.53;5043061;28;20459;-25
2023/04/07 00:19:07;;;;;;;6.80;4.55;;;;;;;17.68;46.16;101584.91;5045848;28;20139;-25
2023/04/07 00:21:33;;;;;;;6.03;4.07;;;;;;;17.68;46.23;101584.91;5040467;28;20053;-25
2023/04/07 00:24:00;;;;;;;8.68;5.28;;;;;;;17.67;46.03;101583.22;5043969;28;20135;-25
2023/04/07 00:26:30;;;;;;;6.68;4.20;;;;;;;17.67;45.72;101580.53;5045282;28;20049;-25
2023/04/07 00:28:57;;;;;;;7.60;4.38;;;;;;;17.66;46.29;101581.53;5043485;28;20055;-26
2023/04/07 00:31:24;;;;;;;6.93;4.65;;;;;;;17.67;46.10;101577.00;5043250;28;20139;-26
2023/04/07 00:33:51;;;;;;;6.85;4.45;;;;;;;17.67;45.99;101579.69;5043185;28;20135;-25
2023/04/07 00:36:18;;;;;;;6.70;3.80;;;;;;;17.66;46.01;101575.31;5043568;28;20056;-25
2023/04/07 00:38:45;;;;;;;6.68;4.28;;;;;;;17.65;46.23;101576.31;5045642;28;20049;-25
2023/04/07 00:41:12;;;;;;;6.95;4.15;;;;;;;17.65;46.22;101571.78;5040516;28;20052;-25
2023/04/07 00:43:38;;;;;;;6.05;4.15;;;;;;;17.65;46.25;101574.47;5044432;28;20619;-25
2023/04/07 00:46:05;;;;;;;6.32;3.42;;;;;;;17.64;46.20;101583.47;5038168;28;20045;-26
2023/04/07 00:48:32;;;;;;;5.88;3.63;;;;;;;17.64;46.26;101578.13;5041582;28;20045;-25
2023/04/07 00:50:58;;;;;;;6.20;3.65;;;;;;;17.64;46.31;101578.13;5044481;28;20429;-25
2023/04/07 00:53:25;;;;;;;7.18;4.07;;;;;;;17.63;46.19;101587.16;5045624;28;20420;-25
2023/04/07 00:55:51;;;;;;;6.25;3.53;;;;;;;17.63;45.92;101581.78;5044523;28;20049;-25
2023/04/07 00:58:18;;;;;;;7.32;3.88;;;;;;;17.62;46.00;101576.56;5045781;28;20053;-25
2023/04/07 01:00:50;;;;;;;7.68;4.10;;;;;;;17.62;46.72;101585.47;5042620;28;20046;-25
2023/04/07 01:03:27;;;;;;;5.93;3.70;;;;;;;17.60;46.27;101579.38;5041397;28;20509;-25
2023/04/07 01:05:59;;;;;;;5.43;3.65;;;;;;;17.60;45.98;101582.03;5045247;28;20045;-25
2023/04/07 01:08:41;;;;;;;6.35;3.97;;;;;;;17.59;46.04;101590.22;5043483;28;20049;-25
2023/04/07 01:11:18;;;;;;;5.32;3.70;;;;;;;17.59;46.45;101585.72;5042476;28;20044;-25
2023/04/07 01:13:48;;;;;;;4.80;3.45;;;;;;;17.59;45.99;101591.06;5042684;28;20048;-26
2023/04/07 01:16:38;;;;;;;5.15;3.53;;;;;;;17.57;46.00;101590.38;5040125;28;20390;-26
2023/04/07 01:19:36;;;;;;;6.68;3.20;;;;;;;17.56;46.22;101583.28;5043272;28;20329;-25
2023/04/07 01:22:12;;;;;;;4.40;3.10;;;;;;;17.57;46.35;101582.34;5042715;28;20053;-25
2023/04/07 01:25:10;;;;;;;5.18;2.85;;;;;;;17.57;45.97;101582.34;5045296;28;20354;-25
2023/04/07 01:27:48;;;;;;;5.55;3.00;;;;;;;17.57;46.04;101585.00;5043892;28;20057;-26
2023/04/07 01:30:16;;;;;;;5.03;3.10;;;;;;;17.57;46.29;101587.69;5043017;28;21168;-25
2023/04/07 01:32:45;;;;;;;5.78;3.17;;;;;;;17.57;46.49;101586.81;5047540;28;20310;-25
2023/04/07 01:35:13;;;;;;;4.88;3.00;;;;;;;17.56;46.75;101588.66;5047652;28;20091;-26
2023/04/07 01:37:41;;;;;;;4.15;2.78;;;;;;;17.56;46.26;101588.66;5048201;28;20462;-25
2023/04/07 01:40:09;;;;;;;3.92;2.72;;;;;;;17.56;46.33;101587.81;5049048;28;20274;-25
2023/04/07 01:42:38;;;;;;;4.40;2.65;;;;;;;17.56;46.30;101587.81;5049571;28;20056;-25
2023/04/07 01:45:06;;;;;;;5.80;3.08;;;;;;;17.55;46.17;101588.81;5053870;28;20049;-25
2023/04/07 01:47:36;;;;;;;3.58;2.63;;;;;;;17.53;46.06;101588.94;5051296;28;20090;-25
2023/04/07 01:50:04;;;;;;;5.45;3.00;;;;;;;17.55;46.41;101588.81;5054278;28;20041;-25
2023/04/07 01:52:35;;;;;;;3.35;2.53;;;;;;;17.53;46.39;101594.31;5053005;28;20048;-25
2023/04/07 01:55:03;;;;;;;6.65;2.90;;;;;;;17.54;46.24;101597.84;5053328;28;20068;-25
2023/04/07 01:57:30;;;;;;;4.07;2.70;;;;;;;17.53;46.33;101596.97;5054157;28;20349;-25
2023/04/07 01:59:57;;;;;;;3.80;2.75;;;;;;;17.53;46.46;101596.97;5051357;28;20136;-25
2023/04/07 02:02:23;;;;;;;4.95;2.95;;;;;;;17.53;46.45;101596.97;5052790;28;20052;-25
2023/04/07 02:04:53;;;;;;;3.80;2.65;;;;;;;17.53;46.12;101594.31;5044759;28;20348;-25
2023/04/07 02:07:28;;;;;;;5.63;2.60;;;;;;;17.52;46.28;101595.25;5044961;28;20063;-25
2023/04/07 02:10:01;;;;;;;3.92;2.63;;;;;;;17.51;46.57;101596.25;5043209;28;20052;-25
2023/04/07 02:12:29;;;;;;;3.72;2.38;;;;;;;17.51;46.86;101599.78;5046229;28;20156;-26
2023/04/07 02:14:57;;;;;;;3.15;2.10;;;;;;;17.51;46.47;101597.09;5041718;28;21027;-25
2023/04/07 02:17:26;;;;;;;5.35;2.92;;;;;;;17.51;46.18;101601.63;5042942;28;20045;-26
2023/04/07 02:19:56;;;;;;;4.38;2.33;;;;;;;17.50;46.69;101603.44;5045578;28;20110;-26
2023/04/07 02:22:24;;;;;;;3.53;2.30;;;;;;;17.51;46.06;101606.97;5043442;28;20049;-25
2023/04/07 02:24:51;;;;;;;3.50;2.28;;;;;;;17.49;46.46;101604.44;5046062;28;20037;-25
2023/04/07 02:27:18;;;;;;;5.05;2.47;;;;;;;17.49;47.10;101600.91;5041308;28;20065;-25
2023/04/07 02:29:45;;;;;;;4.15;2.33;;;;;;;17.50;46.01;101602.59;5044545;28;20055;-25
2023/04/07 02:32:11;;;;;;;3.88;2.28;;;;;;;17.48;46.35;101594.66;5046090;28;20349;-25
2023/04/07 02:34:38;;;;;;;5.05;2.20;;;;;;;17.48;46.67;101602.72;5044377;28;20071;-26
2023/04/07 02:37:05;;;;;;;3.67;2.03;;;;;;;17.47;46.24;101589.47;5041471;28;20372;-25
2023/04/07 02:39:31;;;;;;;3.15;1.90;;;;;;;17.47;46.64;101600.19;5044127;28;20095;-25
2023/04/07 02:41:58;;;;;;;5.55;1.95;;;;;;;17.47;46.62;101592.97;5045645;28;20449;-25
2023/04/07 02:44:24;;;;;;;3.80;2.00;;;;;;;17.47;46.61;101590.31;5044925;28;20053;-25
2023/04/07 02:46:51;;;;;;;4.15;2.50;;;;;;;17.47;46.41;101595.66;5044856;28;20044;-25
2023/04/07 02:49:17;;;;;;;3.22;1.98;;;;;;;17.47;46.14;101594.81;5043778;28;20433;-25
2023/04/07 02:51:45;;;;;;;2.95;1.83;;;;;;;17.47;47.05;101601.03;5045122;28;20056;-25
2023/04/07 02:54:12;;;;;;;3.35;1.85;;;;;;;17.46;46.66;101602.00;5044449;28;20049;-25
2023/04/07 02:56:38;;;;;;;3.13;1.90;;;;;;;17.46;46.13;101603.84;5043349;28;20353;-25
2023/04/07 02:59:06;;;;;;;3.03;1.95;;;;;;;17.47;46.56;101608.22;5044382;28;20052;-25
2023/04/07 03:01:33;;;;;;;3.55;2.00;;;;;;;17.45;46.67;101594.97;5044386;28;20063;-25
2023/04/07 03:04:00;;;;;;;4.20;2.30;;;;;;;17.45;46.73;101599.47;5045808;28;20053;-26
2023/04/07 03:06:27;;;;;;;2.63;1.70;;;;;;;17.45;46.50;101605.69;5042893;28;20400;-25
2023/04/07 03:08:54;;;;;;;3.15;1.92;;;;;;;17.45;46.55;101605.69;5045585;28;20049;-26
2023/04/07 03:11:20;;;;;;;3.50;1.70;;;;;;;17.45;46.41;101596.78;5047004;28;20060;-25
2023/04/07 03:13:47;;;;;;;4.15;1.88;;;;;;;17.45;46.79;101600.31;5046733;28;20053;-25
2023/04/07 03:16:13;;;;;;;3.53;1.88;;;;;;;17.44;46.66;101597.75;5042368;28;20452;-26
2023/04/07 03:18:40;;;;;;;3.53;2.10;;;;;;;17.45;46.16;101600.31;5043129;28;20060;-25
2023/04/07 03:21:07;;;;;;;3.70;2.00;;;;;;;17.44;46.46;101601.28;5046912;28;20063;-25
2023/04/07 03:23:33;;;;;;;3.50;1.90;;;;;;;17.44;46.30;101603.13;5045927;28;20063;-25
2023/04/07 03:26:00;;;;;;;3.60;1.63;;;;;;;17.44;46.84;101601.28;5044131;28;20337;-25
2023/04/07 03:28:26;;;;;;;2.97;1.70;;;;;;;17.44;46.83;101600.44;5048285;28;20055;-25
2023/04/07 03:30:53;;;;;;;5.80;2.00;;;;;;;17.44;46.25;101603.13;5051422;28;20052;-25
2023/04/07 03:33:19;;;;;;;3.17;1.70;;;;;;;17.43;46.23;101601.41;5050837;28;20057;-25
2023/04/07 03:35:46;;;;;;;2.83;1.77;;;;;;;17.43;46.74;101596.06;5050728;28;20045;-25
2023/04/07 03:38:12;;;;;;;3.88;1.90;;;;;;;17.43;46.33;101601.41;5052213;28;20490;-25
2023/04/07 03:40:39;;;;;;;3.22;1.63;;;;;;;17.42;46.28;101592.53;5049779;28;20049;-25
2023/04/07 03:43:11;;;;;;;2.92;1.50;;;;;;;17.42;46.32;101603.25;5052279;28;20405;-25
2023/04/07 03:45:37;;;;;;;2.55;1.70;;;;;;;17.42;46.35;101599.72;5051010;28;20329;-25
2023/04/07 03:48:04;;;;;;;3.28;1.73;;;;;;;17.41;46.45;101596.19;5050350;28;20045;-25
2023/04/07 03:50:31;;;;;;;1.75;1.38;;;;;;;17.41;45.79;101601.56;5049231;28;20448;-25
2023/04/07 03:52:57;;;;;;;2.60;1.50;;;;;;;17.41;46.82;101595.34;5047707;28;20433;-26
2023/04/07 03:55:24;;;;;;;2.40;1.65;;;;;;;17.41;46.02;101595.34;5052186;28;20447;-25
2023/04/07 03:57:51;;;;;;;2.10;1.40;;;;;;;17.41;46.38;101600.72;5047640;28;20128;-25
2023/04/07 04:00:18;;;;;;;3.13;1.65;;;;;;;17.40;46.54;101605.19;5050209;28;20060;-26
2023/04/07 04:02:44;;;;;;;3.58;1.60;;;;;;;17.40;46.89;101607.03;5043186;28;20476;-26
2023/04/07 04:05:11;;;;;;;3.00;1.30;;;;;;;17.40;46.59;101613.25;5042797;28;20049;-25
2023/04/07 04:07:38;;;;;;;1.85;1.38;;;;;;;17.39;46.53;101619.59;5044711;28;20056;-25
2023/04/07 04:10:05;;;;;;;2.55;1.60;;;;;;;17.39;46.82;101621.41;5046203;28;20055;-25
2023/04/07 04:12:32;;;;;;;2.90;1.35;;;;;;;17.40;46.27;101620.44;5044691;28;20237;-25
2023/04/07 04:14:58;;;;;;;2.83;1.35;;;;;;;17.40;46.50;101612.41;5041318;28;20144;-25
2023/04/07 04:17:25;;;;;;;3.22;2.03;;;;;;;17.38;46.73;101617.91;5044672;28;20044;-25
2023/04/07 04:19:53;;;;;;;3.13;1.63;;;;;;;17.39;46.57;101618.75;5048409;28;20041;-25
2023/04/07 04:22:19;;;;;;;3.60;1.55;;;;;;;17.38;46.82;101625.94;5048893;28;20056;-25
2023/04/07 04:24:46;;;;;;;2.67;1.48;;;;;;;17.38;46.27;101622.41;5050529;28;20067;-25
2023/04/07 04:27:12;;;;;;;2.70;1.42;;;;;;;17.37;46.58;101629.59;5043780;28;20053;-25
2023/04/07 04:29:39;;;;;;;3.67;1.80;;;;;;;17.37;46.77;101634.13;5041471;28;20048;-26
2023/04/07 04:32:05;;;;;;;3.83;1.20;;;;;;;17.36;46.48;101632.41;5043824;28;20055;-25
2023/04/07 04:34:33;;;;;;;3.28;1.45;;;;;;;17.36;46.90;101638.59;5045056;28;20049;-25
2023/04/07 04:36:59;;;;;;;3.38;1.38;;;;;;;17.36;46.64;101632.41;5047721;28;20049;-25
2023/04/07 04:39:26;;;;;;;2.72;1.42;;;;;;;17.36;46.33;101637.75;5050656;28;20076;-25
2023/04/07 04:41:53;;;;;;;2.35;1.13;;;;;;;17.34;46.87;101635.22;5051054;28;20330;-25
2023/04/07 04:44:19;;;;;;;2.80;1.60;;;;;;;17.35;46.60;101642.25;5050424;28;20140;-25
2023/04/07 04:46:46;;;;;;;5.85;1.67;;;;;;;17.35;47.09;101641.41;5043983;28;20049;-25
2023/04/07 04:49:13;;;;;;;2.45;1.75;;;;;;;17.34;47.12;101635.22;5050601;28;20076;-26
2023/04/07 04:51:40;;;;;;;3.72;2.00;;;;;;;17.35;46.34;101644.09;5051319;28;20067;-25
2023/04/07 04:54:07;;;;;;;2.33;1.60;;;;;;;17.34;46.93;101653.13;5051692;28;20345;-25
2023/04/07 04:56:34;;;;;;;2.40;1.67;;;;;;;17.34;46.70;101650.44;5049753;28;20084;-25
2023/04/07 04:59:01;;;;;;;4.90;2.20;;;;;;;17.34;46.58;101656.66;5050677;28;20063;-26
2023/04/07 05:01:27;;;;;;;5.05;2.45;;;;;;;17.33;46.63;101654.09;5048252;28;20053;-25
2023/04/07 05:03:56;;;;;;;4.30;2.35;;;;;;;17.33;47.04;101652.28;5050519;28;20138;-25
2023/04/07 05:06:23;;;;;;;3.10;2.20;;;;;;;17.34;47.07;101661.16;5048455;28;20450;-25
2023/04/07 05:08:50;;;;;;;4.20;2.35;;;;;;;17.35;46.74;101665.53;5050253;28;20045;-25
2023/04/07 05:11:17;;;;;;;4.80;2.38;;;;;;;17.34;46.98;101656.66;5049994;28;20045;-25
2023/04/07 05:13:43;;;;;;;3.97;2.40;;;;;;;17.34;46.74;101658.47;5050521;28;20048;-25
2023/04/07 05:16:10;;;;;;;3.70;2.35;;;;;;;17.34;46.96;101661.16;5047486;28;20045;-25
2023/04/07 05:18:36;;;;;;;4.32;2.80;;;;;;;17.34;46.80;101662.00;5053002;28;20048;-25
2023/04/07 05:21:03;;;;;;;5.40;3.00;;;;;;;17.34;46.69;101659.34;5051197;28;20071;-26
2023/04/07 05:23:30;;;;;;;4.30;2.75;;;;;;;17.33;46.53;101671.03;5054123;28;20428;-25
2023/04/07 05:25:56;;;;;;;3.72;2.42;;;;;;;17.34;45.99;101661.16;5055007;28;20045;-26
2023/04/07 05:28:24;;;;;;;4.18;2.67;;;;;;;17.33;46.52;101664.84;5054434;28;20045;-25
2023/04/07 05:30:50;;;;;;;5.38;3.13;;;;;;;17.33;46.71;101665.69;5052314;28;20127;-25
2023/04/07 05:33:17;;;;;;;4.97;3.13;;;;;;;17.34;46.55;101671.88;5052725;28;20087;-25
2023/04/07 05:35:44;;;;;;;4.68;2.60;;;;;;;17.32;46.16;101663.09;5051521;28;20045;-25
2023/04/07 05:38:12;;;;;;;5.80;2.85;;;;;;;17.31;46.66;101664.94;5050315;28;20095;-25
2023/04/07 05:40:39;;;;;;;5.78;3.30;;;;;;;17.33;46.28;101673.72;5052729;28;20063;-25
2023/04/07 05:43:05;;;;;;;3.40;2.63;;;;;;;17.33;46.53;101675.56;5051711;28;20044;-26
2023/04/07 05:45:32;;;;;;;5.55;3.60;;;;;;;17.32;47.03;101682.72;5049916;28;20037;-25
2023/04/07 05:47:58;;;;;;;5.30;3.28;;;;;;;17.33;46.50;101680.91;5050734;28;20383;-25
2023/04/07 05:50:25;;;;;;;4.88;3.47;;;;;;;17.33;47.07;101672.88;5054429;28;20048;-25
2023/04/07 05:52:52;;;;;;;4.95;3.20;;;;;;;17.34;46.79;101687.97;5050101;28;20053;-25
2023/04/07 05:55:18;;;;;;;4.90;2.90;;;;;;;17.32;46.16;101685.38;5052947;28;20045;-26
2023/04/07 05:57:45;;;;;;;4.93;3.03;;;;;;;17.33;46.86;101688.94;5051996;28;20056;-26
2023/04/07 06:00:12;;;;;;;5.10;3.33;;;;;;;17.31;46.44;101688.22;5051547;28;20067;-25
2023/04/07 06:02:39;;;;;;;5.63;3.63;;;;;;;17.33;46.48;101691.63;5052960;28;20049;-25
2023/04/07 06:05:06;;;;;;;7.25;3.67;;;;;;;17.32;46.93;101689.91;5050537;28;20451;-25
2023/04/07 06:07:32;;;;;;;6.80;3.38;;;;;;;17.31;46.64;101686.38;5051738;28;20045;-25
2023/04/07 06:09:59;;;;;;;5.20;3.13;;;;;;;17.32;46.90;101695.25;5051757;28;20144;-25
2023/04/07 06:12:26;;;;;;;4.45;3.00;;;;;;;17.32;46.75;101688.06;5052067;28;20652;-25
2023/04/07 06:14:54;;;;;;;5.22;3.28;;;;;;;17.32;46.91;101695.25;5050531;28;20332;-25
2023/04/07 06:17:22;;;;;;;5.45;3.17;;;;;;;17.33;47.07;101696.97;5045692;28;20059;-25
2023/04/07 06:19:48;;;;;;;5.13;3.35;;;;;;;17.33;46.73;101688.94;5047061;28;20045;-25
2023/04/07 06:22:15;;;;;;;7.70;4.03;;;;;;;17.33;46.57;101695.16;5042795;28;20057;-25
2023/04/07 06:24:41;;;;;;;5.68;3.60;;;;;;;17.34;47.04;101701.34;5044651;28;20075;-25
2023/04/07 06:27:08;;;;;;;5.72;3.40;;;;;;;17.33;46.50;101700.50;5047555;28;20047;-25
2023/04/07 06:29:35;;;;;;;7.30;3.95;;;;;;;17.33;46.74;101700.50;5045954;28;20059;-25
2023/04/07 06:32:02;;;;;;;6.03;3.65;;;;;;;17.34;46.17;101698.69;5051486;28;20348;-25
2023/04/07 06:34:28;;;;;;;5.70;3.17;;;;;;;17.33;46.67;101703.19;5051236;28;20092;-25
2023/04/07 06:36:55;;;;;;;4.85;3.60;;;;;;;17.34;46.96;101699.53;5051379;28;20052;-25
2023/04/07 06:39:26;;;;;;;5.40;3.33;;;;;;;17.34;46.68;101704.03;5050537;28;20053;-25
2023/04/07 06:41:52;;;;;;;3.90;3.13;;;;;;;17.35;46.94;101711.09;5048556;28;20040;-25
2023/04/07 06:44:19;;;;;;;5.15;3.42;;;;;;;17.35;46.70;101714.63;5051232;28;20095;-25
2023/04/07 06:46:48;;;;;;;5.32;3.22;;;;;;;17.35;46.74;101711.94;5048845;28;20041;-25
2023/04/07 06:49:15;;;;;;;6.22;3.95;;;;;;;17.35;46.55;101719.97;5051178;28;20045;-25
2023/04/07 06:51:41;;;;;;;4.72;3.10;;;;;;;17.35;46.39;101719.13;5050582;28;20071;-26
2023/04/07 06:54:11;;;;;;;5.65;3.47;;;;;;;17.35;46.61;101719.13;5052062;28;20051;-25
2023/04/07 06:56:39;;;;;;;4.93;3.20;;;;;;;17.35;46.65;101722.66;5050256;28;20428;-25
2023/04/07 06:59:06;;;;;;;4.63;3.15;;;;;;;17.35;46.45;101724.47;5049516;28;20066;-26
2023/04/07 07:01:33;;;;;;;4.80;3.28;;;;;;;17.36;46.86;101729.72;5048821;28;20057;-25
2023/04/07 07:04:00;;;;;;;4.97;2.95;;;;;;;17.35;46.87;101735.19;5045216;28;20048;-25
2023/04/07 07:06:27;;;;;;;5.90;3.60;;;;;;;17.36;46.38;101736.91;5050479;28;20044;-25
2023/04/07 07:08:53;;;;;;;4.93;3.22;;;;;;;17.36;46.46;101740.44;5047670;28;20071;-26
2023/04/07 07:11:20;;;;;;;5.25;3.40;;;;;;;17.37;46.22;101736.78;5045944;28;20057;-25
2023/04/07 07:13:46;;;;;;;6.10;3.40;;;;;;;17.37;46.31;101736.78;5049618;28;20041;-25
2023/04/07 07:16:13;;;;;;;5.63;3.20;;;;;;;17.38;46.59;101749.19;5048229;28;20052;-25
2023/04/07 07:18:40;;;;;;;5.45;3.13;;;;;;;17.39;46.61;101742.00;5048817;28;20052;-25
2023/04/07 07:21:07;;;;;;;4.93;2.97;;;;;;;17.38;46.36;101749.19;5049515;28;20053;-26
2023/04/07 07:23:33;;;;;;;5.72;3.05;;;;;;;17.39;46.35;101750.06;5048991;28;20145;-25
2023/04/07 07:26:00;;;;;;;4.53;2.78;;;;;;;17.39;46.52;101756.25;5046095;28;20166;-25
2023/04/07 07:28:28;;;;;;;7.40;3.28;;;;;;;17.40;46.38;101757.09;5051790;28;20294;-26
2023/04/07 07:30:55;;;;;;;4.25;2.92;;;;;;;17.40;46.47;101759.78;5047940;28;20075;-25
2023/04/07 07:33:21;;;;;;;4.88;3.15;;;;;;;17.41;46.50;101761.50;5050413;28;20387;-25
2023/04/07 07:35:48;;;;;;;4.85;2.83;;;;;;;17.40;45.99;101759.78;5050396;28;20683;-25
2023/04/07 07:38:14;;;;;;;6.28;3.20;;;;;;;17.41;46.40;101766.88;5048991;28;20156;-25
2023/04/07 07:40:41;;;;;;;3.85;2.90;;;;;;;17.40;46.46;101773.19;5048457;28;20044;-26
2023/04/07 07:43:08;;;;;;;5.85;3.38;;;;;;;17.39;46.64;101772.34;5049095;28;20544;-25
2023/04/07 07:45:34;;;;;;;5.88;3.17;;;;;;;17.40;46.35;101771.34;5050072;28;20057;-25
2023/04/07 07:48:01;;;;;;;6.45;2.88;;;;;;;17.40;46.48;101774.03;5050411;28;20049;-25
2023/04/07 07:50:28;;;;;;;4.80;2.63;;;;;;;17.42;46.55;101781.97;5046277;28;20065;-26
2023/04/07 07:52:55;;;;;;;4.20;2.90;;;;;;;17.42;46.39;101787.31;5050925;28;20055;-25
2023/04/07 07:55:21;;;;;;;4.93;2.72;;;;;;;17.43;46.87;101786.34;5048259;28;20429;-25
2023/04/07 07:57:48;;;;;;;4.30;2.80;;;;;;;17.43;46.59;101786.34;5050468;28;20049;-25
2023/04/07 08:00:15;;;;;;;3.90;2.70;;;;;;;17.43;46.41;101784.50;5048154;28;20337;-25
2023/04/07 08:02:41;;;;;;;4.38;2.25;;;;;;;17.43;46.40;101783.66;5046823;28;20060;-25
2023/04/07 08:05:08;;;;;;;3.83;2.53;;;;;;;17.44;46.17;101791.56;5048336;28;20045;-25
2023/04/07 08:07:35;;;;;;;4.80;2.75;;;;;;;17.46;46.63;101791.44;5048562;28;20357;-25
2023/04/07 08:10:02;;;;;;;4.95;2.63;;;;;;;17.48;46.20;101802.88;5046282;28;20422;-25
2023/04/07 08:12:28;;;;;;;6.38;2.88;;;;;;;17.48;46.33;101805.56;5044531;28;20060;-25
2023/04/07 08:14:55;;;;;;;6.85;2.80;;;;;;;17.49;46.60;101799.25;5046939;28;20052;-25
2023/04/07 08:17:21;;;;;;;3.40;2.30;;;;;;;17.51;46.76;101808.00;5048667;28;20344;-26
2023/04/07 08:19:48;;;;;;;4.75;2.42;;;;;;;17.50;45.83;101804.47;5048149;28;20098;-25
2023/04/07 08:22:15;;;;;;;3.75;2.40;;;;;;;17.51;46.38;101797.28;5045492;28;20135;-25
2023/04/07 08:24:41;;;;;;;5.95;2.95;;;;;;;17.51;46.26;101808.84;5047907;28;20452;-25
2023/04/07 08:27:08;;;;;;;4.25;2.60;;;;;;;17.52;46.31;101809.69;5045310;28;20520;-26
2023/04/07 08:29:34;;;;;;;3.90;2.40;;;;;;;17.53;46.12;101814.09;5048408;28;20082;-25
2023/04/07 08:32:01;;;;;;;4.20;2.50;;;;;;;17.55;46.04;101820.16;5049282;28;20045;-25
2023/04/07 08:34:27;;;;;;;4.45;2.35;;;;;;;17.55;46.25;101819.31;5045739;28;20501;-26
2023/04/07 08:36:54;;;;;;;5.63;2.13;;;;;;;17.55;46.68;101819.31;5047742;28;20056;-25
2023/04/07 08:39:21;;;;;;;3.45;2.25;;;;;;;17.56;46.22;101816.50;5050254;28;20056;-25
2023/04/07 08:41:49;;;;;;;5.10;2.17;;;;;;;17.54;46.51;101823.84;5048350;28;20049;-26
2023/04/07 08:44:20;;;;;;;4.60;2.65;;;;;;;17.57;46.19;101817.34;5050339;28;20155;-26
2023/04/07 08:46:48;;;;;;;4.78;2.40;;;;;;;17.57;46.17;101820.91;5047117;28;20040;-26
2023/04/07 08:49:16;;;;;;;3.55;2.17;;;;;;;17.59;46.41;101820.78;5044284;28;20363;-25
2023/04/07 08:51:47;;;;;;;3.67;2.28;;;;;;;17.58;46.02;101827.97;5045288;28;20048;-25
2023/04/07 08:54:17;;;;;;;3.85;1.92;;;;;;;17.57;46.27;101828.94;5050552;28;20049;-25
2023/04/07 08:56:44;;;;;;;3.25;1.88;;;;;;;17.59;45.92;101828.81;5042023;28;20154;-25
2023/04/07 08:59:14;;;;;;;4.40;2.10;;;;;;;17.57;46.21;101834.31;5045175;28;20060;-25
2023/04/07 09:01:40;;;;;;;5.45;2.80;;;;;;;17.58;46.51;101836.00;5047205;28;20321;-25
2023/04/07 09:04:09;;;;;;;3.53;1.95;;;;;;;17.58;46.09;101836.00;5046255;28;20449;-25
2023/04/07 09:06:36;;;;;;;4.13;2.17;;;;;;;17.58;45.89;101829.78;5047748;28;20052;-26
2023/04/07 09:09:07;;;;;;;3.35;2.28;;;;;;;17.58;46.23;101841.38;5049839;28;20337;-25
2023/04/07 09:11:36;;;;;;;5.07;2.28;;;;;;;17.58;45.97;101843.19;5048728;28;20052;-25
2023/04/07 09:14:03;;;;;;;4.15;2.35;;;;;;;17.58;46.19;101841.38;5043320;28;20069;-25
2023/04/07 09:16:32;;;;;;;4.15;2.20;;;;;;;17.58;45.80;101841.38;5026710;28;20079;-25
2023/04/07 09:18:59;;;;;;;3.00;2.10;;;;;;;17.59;46.44;101837.69;5026469;28;20057;-25
2023/04/07 09:21:26;;;;;;;5.70;2.25;;;;;;;17.60;46.15;101836.72;5029255;28;20388;-25
2023/04/07 09:23:53;;;;;;;4.03;2.08;;;;;;;17.60;46.40;101843.91;5029666;28;20132;-25
2023/04/07 09:26:23;;;;;;;2.47;1.65;;;;;;;17.61;46.37;101840.25;5028200;28;20322;-25
2023/04/07 09:28:54;;;;;;;4.07;2.05;;;;;;;17.62;46.17;101845.50;5029758;28;20053;-25
2023/04/07 09:31:24;;;;;;;5.22;2.63;;;;;;;17.62;46.14;101848.19;5025828;28;20053;-25
2023/04/07 09:33:52;;;;;;;6.28;2.03;;;;;;;17.62;46.34;101844.66;5026556;28;20053;-25
2023/04/07 09:36:18;;;;;;;4.10;1.88;;;;;;;17.62;46.41;101850.00;5029796;28;20059;-25
2023/04/07 09:38:45;;;;;;;3.38;1.70;;;;;;;17.62;46.43;101850.00;5029386;28;20057;-26
2023/04/07 09:41:15;;;;;;;3.00;2.00;;;;;;;17.62;46.18;101855.38;5028583;28;20059;-25
2023/04/07 09:43:44;;;;;;;5.78;1.70;;;;;;;17.61;46.38;101850.97;5028717;28;20057;-25
2023/04/07 09:46:12;;;;;;;3.78;1.85;;;;;;;17.63;46.60;101854.38;5029076;28;20153;-25
2023/04/07 09:48:39;;;;;;;2.92;1.90;;;;;;;17.62;46.31;101847.31;5028053;28;20052;-25
2023/04/07 09:51:10;;;;;;;4.40;1.65;;;;;;;17.61;46.34;101853.66;5028621;28;20049;-25
2023/04/07 09:53:48;;;;;;;5.35;2.17;;;;;;;17.61;46.40;101850.97;5031627;28;20049;-26
2023/04/07 09:56:23;;;;;;;5.68;2.40;;;;;;;17.62;46.52;101853.53;5028584;28;20045;-26
2023/04/07 09:58:53;;;;;;;2.70;1.73;;;;;;;17.62;46.47;101853.53;5031049;28;20091;-26
2023/04/07 10:01:20;;;;;;;5.57;2.25;;;;;;;17.62;46.34;101858.91;5025997;28;20065;-25
2023/04/07 10:03:47;;;;;;;4.28;1.85;;;;;;;17.63;46.33;101855.22;5028596;28;20088;-25
2023/04/07 10:06:15;;;;;;;3.40;1.88;;;;;;;17.63;46.75;101857.91;5031811;28;20858;-25
2023/04/07 10:08:42;;;;;;;3.38;2.00;;;;;;;17.64;46.20;101862.28;5031850;28;20053;-25
2023/04/07 10:11:09;;;;;;;8.43;2.20;;;;;;;17.64;46.51;101864.97;5033480;28;20059;-25
2023/04/07 10:13:38;;;;;;;3.38;1.90;;;;;;;17.65;46.24;101868.53;5035497;28;20080;-25
2023/04/07 10:16:06;;;;;;;4.68;1.77;;;;;;;17.65;46.75;101869.38;5043509;28;20045;-25
2023/04/07 10:18:35;;;;;;;5.35;2.10;;;;;;;17.64;46.18;101859.59;5026713;28;20055;-25
2023/04/07 10:21:06;;;;;;;4.97;2.00;;;;;;;17.64;46.38;101866.81;5033634;28;20087;-25
2023/04/07 10:23:52;;;;;;;4.47;1.77;;;;;;;17.64;46.89;101875.69;5031602;28;20509;-25
2023/04/07 10:26:22;;;;;;;4.13;1.83;;;;;;;17.64;46.58;101875.69;5030980;28;20431;-25
2023/04/07 10:28:52;;;;;;;4.97;1.98;;;;;;;17.64;46.56;101881.06;5029137;28;20666;-25
2023/04/07 10:31:19;;;;;;;6.03;2.20;;;;;;;17.65;46.53;101877.41;5027061;28;20053;-26
2023/04/07 10:33:48;;;;;;;5.15;2.03;;;;;;;17.66;46.08;101880.94;5026556;28;20056;-27
2023/04/07 10:36:20;;;;;;;6.95;2.30;;;;;;;17.65;46.69;101876.56;5031036;28;20055;-26
2023/04/07 10:39:05;;;;;;;4.75;1.85;;;;;;;17.66;46.72;101881.81;5029698;28;20053;-25
2023/04/07 10:41:40;;;;;;;6.05;2.20;;;;;;;17.67;46.74;101888.00;5029368;28;20055;-25
2023/04/07 10:44:08;;;;;;;4.20;2.00;;;;;;;17.68;46.60;101889.72;5031962;28;20185;-25
2023/04/07 10:46:44;;;;;;;4.97;2.13;;;;;;;17.69;46.78;101891.44;5030363;28;21838;-25
2023/04/07 10:49:12;;;;;;;3.95;1.90;;;;;;;17.70;46.29;101888.63;5030173;28;20063;-26
2023/04/07 10:51:39;;;;;;;5.38;1.98;;;;;;;17.71;46.66;101893.00;5032001;28;20348;-26
2023/04/07 10:54:24;;;;;;;5.35;2.20;;;;;;;17.72;46.50;101883.13;5034774;28;20049;-25
2023/04/07 10:57:02;;;;;;;7.18;1.90;;;;;;;17.72;46.49;101894.69;5029113;28;20076;-25
2023/04/07 10:59:29;;;;;;;4.03;1.88;;;;;;;17.73;45.88;101891.06;5028918;28;20081;-25
2023/04/07 11:02:11;;;;;;;3.17;1.70;;;;;;;17.73;46.51;101896.41;5025857;28;20060;-25
2023/04/07 11:04:39;;;;;;;2.50;1.52;;;;;;;17.74;46.21;101892.78;5028893;28;20072;-25
2023/04/07 11:07:06;;;;;;;3.35;1.80;;;;;;;17.74;46.35;101894.59;5033615;28;20480;-25
2023/04/07 11:09:33;;;;;;;6.10;1.95;;;;;;;17.74;46.77;101902.63;5029890;28;20409;-26
2023/04/07 11:11:59;;;;;;;3.53;1.80;;;;;;;17.73;45.85;101900.94;5031098;28;20045;-25
2023/04/07 11:14:27;;;;;;;4.30;1.85;;;;;;;17.74;46.41;101902.63;5030399;28;20060;-26
2023/04/07 11:16:54;;;;;;;5.72;1.80;;;;;;;17.74;46.33;101906.19;5026698;28;20333;-25
2023/04/07 11:19:21;;;;;;;7.07;1.83;;;;;;;17.79;46.48;101903.13;5031766;28;20055;-25
2023/04/07 11:21:48;;;;;;;4.30;1.77;;;;;;;17.87;46.30;101902.50;5025879;28;20061;-26
2023/04/07 11:24:39;;;;;;;4.70;1.80;;;;;;;17.97;46.59;101904.28;5028704;28;20346;-26
2023/04/07 11:27:11;;;;;;;8.32;1.90;;;;;;;18.06;46.07;101905.34;5030061;28;20045;-26
2023/04/07 11:29:38;;;;;;;4.80;1.73;;;;;;;18.13;45.80;101905.69;5031817;28;20059;-26